createdAt,value
2022-08-05T00:01:28.160Z,26.67
2022-08-05T00:03:57.132Z,26.64
2022-08-05T00:06:30.655Z,26.60
2022-08-05T00:09:00.385Z,26.59
2022-08-05T00:11:30.598Z,26.61
2022-08-05T00:14:12.739Z,26.54
2022-08-05T00:16:52.670Z,26.49
2022-08-05T00:19:23.292Z,26.53
2022-08-05T00:21:51.886Z,26.50
2022-08-05T00:24:24.899Z,26.52
2022-08-05T00:26:58.561Z,26.46
2022-08-05T00:29:26.044Z,26.46
2022-08-05T00:32:13.476Z,26.48
2022-08-05T00:35:04.825Z,26.45
2022-08-05T00:37:50.632Z,26.40
2022-08-05T00:40:26.918Z,26.41
2022-08-05T00:42:54.979Z,26.40
2022-08-05T00:45:28.399Z,26.40
2022-08-05T00:48:09.436Z,26.33
2022-08-05T00:50:37.142Z,26.32
2022-08-05T00:53:09.734Z,26.30
2022-08-05T00:55:50.923Z,26.28
2022-08-05T00:58:19.196Z,26.23
2022-08-05T01:00:47.710Z,26.18
2022-08-05T01:03:22.973Z,26.13
2022-08-05T01:05:51.223Z,26.12
2022-08-05T01:08:39.225Z,26.08
2022-08-05T01:11:14.011Z,26.09
2022-08-05T01:14:08.621Z,26.07
2022-08-05T01:17:06.474Z,26.02
2022-08-05T01:20:02.026Z,26.06
2022-08-05T01:22:35.811Z,26.04
2022-08-05T01:25:39.729Z,26.01
2022-08-05T01:28:24.285Z,26.03
2022-08-05T01:31:21.049Z,25.99
2022-08-05T01:33:54.366Z,25.93
2022-08-05T01:36:28.153Z,25.99
2022-08-05T01:39:00.969Z,26.01
2022-08-05T01:41:32.657Z,25.99
2022-08-05T01:44:00.819Z,25.98
2022-08-05T01:46:42.828Z,25.98
2022-08-05T01:49:22.894Z,25.98
2022-08-05T01:51:55.098Z,25.99
2022-08-05T01:54:27.139Z,25.96
2022-08-05T01:58:09.431Z,25.96
2022-08-05T01:59:48.419Z,25.93
2022-08-05T02:02:17.752Z,25.98
2022-08-05T02:04:49.712Z,25.95
2022-08-05T02:07:21.866Z,25.96
2022-08-05T02:09:51.981Z,25.88
2022-08-05T02:12:42.976Z,25.94
2022-08-05T02:15:24.271Z,25.92
2022-08-05T02:18:28.404Z,25.89
2022-08-05T02:20:58.717Z,25.80
2022-08-05T02:23:33.512Z,25.83
2022-08-05T02:26:05.136Z,25.74
2022-08-05T02:28:41.772Z,25.74
2022-08-05T02:31:17.254Z,25.66
2022-08-05T02:33:57.423Z,25.62
2022-08-05T02:36:31.361Z,25.66
2022-08-05T02:39:00.442Z,25.60
2022-08-05T02:41:36.148Z,25.64
2022-08-05T02:44:13.227Z,25.64
2022-08-05T02:46:53.159Z,25.68
2022-08-05T02:49:27.232Z,25.61
2022-08-05T02:52:04.952Z,25.61
2022-08-05T02:54:35.047Z,25.63
2022-08-05T02:57:10.182Z,25.58
2022-08-05T02:59:54.245Z,25.59
2022-08-05T03:02:24.350Z,25.54
2022-08-05T03:04:57.304Z,25.54
2022-08-05T03:07:59.372Z,25.48
2022-08-05T03:10:15.717Z,25.45
2022-08-05T03:12:51.856Z,25.47
2022-08-05T03:15:18.571Z,25.47
2022-08-05T03:17:45.069Z,25.46
2022-08-05T03:20:12.015Z,25.62
2022-08-05T03:22:43.892Z,25.44
2022-08-05T03:25:32.587Z,25.05
2022-08-05T03:27:59.954Z,24.84
2022-08-05T03:30:33.563Z,24.70
2022-08-05T03:33:05.740Z,24.54
2022-08-05T03:35:33.714Z,24.40
2022-08-05T03:38:01.157Z,24.30
2022-08-05T03:40:32.004Z,24.22
2022-08-05T03:42:59.500Z,24.08
2022-08-05T03:45:57.290Z,24.00
2022-08-05T03:48:25.334Z,23.93
2022-08-05T03:50:59.027Z,23.91
2022-08-05T03:55:51.172Z,23.92
2022-08-05T03:56:42.039Z,23.92
2022-08-05T03:59:47.411Z,23.87
2022-08-05T04:02:38.500Z,23.92
2022-08-05T04:05:09.541Z,23.96
2022-08-05T04:07:57.479Z,23.96
2022-08-05T04:10:27.877Z,23.99
2022-08-05T04:12:56.362Z,24.00
2022-08-05T04:15:26.453Z,24.02
2022-08-05T04:17:59.877Z,23.99
2022-08-05T04:20:26.612Z,24.02
2022-08-05T04:22:53.080Z,23.98
2022-08-05T04:25:19.921Z,24.05
2022-08-05T04:28:11.183Z,24.14
2022-08-05T04:30:39.094Z,24.15
2022-08-05T04:33:14.523Z,24.18
2022-08-05T04:36:15.956Z,24.37
2022-08-05T04:38:39.915Z,24.44
2022-08-05T04:41:09.311Z,24.54
2022-08-05T04:43:36.467Z,24.53
2022-08-05T04:46:05.160Z,24.69
2022-08-05T04:48:31.939Z,24.91
2022-08-05T04:51:02.552Z,25.04
2022-08-05T04:53:33.587Z,25.14
2022-08-05T04:56:32.341Z,25.29
2022-08-05T04:58:48.456Z,25.56
2022-08-05T05:01:15.070Z,25.97
2022-08-05T05:04:00.543Z,26.43
2022-08-05T05:06:40.281Z,26.76
2022-08-05T05:09:14.176Z,27.02
2022-08-05T05:11:55.693Z,27.27
2022-08-05T05:14:27.870Z,27.51
2022-08-05T05:16:59.096Z,27.73
2022-08-05T05:19:27.496Z,27.99
2022-08-05T05:22:22.936Z,28.32
2022-08-05T05:24:56.886Z,28.62
2022-08-05T05:27:41.156Z,28.66
2022-08-05T05:30:15.301Z,28.63
2022-08-05T05:32:49.247Z,28.38
2022-08-05T05:35:19.901Z,27.54
2022-08-05T05:37:59.381Z,27.24
2022-08-05T05:40:30.803Z,27.38
2022-08-05T05:43:02.110Z,27.19
2022-08-05T05:45:29.095Z,26.68
2022-08-05T05:48:06.113Z,26.82
2022-08-05T05:50:41.040Z,27.16
2022-08-05T05:53:20.904Z,27.13
2022-08-05T05:55:52.530Z,27.26
2022-08-05T05:58:30.313Z,27.64
2022-08-05T06:01:12.376Z,28.21
2022-08-05T06:04:00.451Z,28.93
2022-08-05T06:06:28.127Z,29.24
2022-08-05T06:08:58.453Z,29.13
2022-08-05T06:11:24.978Z,28.97
2022-08-05T06:13:54.249Z,28.80
2022-08-05T06:16:29.447Z,28.46
2022-08-05T06:19:00.271Z,28.20
2022-08-05T06:21:36.719Z,27.94
2022-08-05T06:24:12.050Z,27.68
2022-08-05T06:26:51.069Z,27.42
2022-08-05T06:29:43.145Z,27.20
2022-08-05T06:32:05.451Z,26.99
2022-08-05T06:34:48.372Z,26.88
2022-08-05T06:37:57.394Z,26.87
2022-08-05T06:40:07.966Z,26.72
2022-08-05T06:42:34.484Z,26.67
2022-08-05T06:45:05.590Z,26.68
2022-08-05T06:47:42.199Z,26.60
2022-08-05T06:50:27.178Z,26.73
2022-08-05T06:52:58.805Z,26.99
2022-08-05T06:55:37.825Z,27.27
2022-08-05T06:58:29.089Z,27.54
2022-08-05T07:00:59.763Z,28.10
2022-08-05T07:03:27.934Z,28.68
2022-08-05T07:05:59.224Z,29.50
2022-08-05T07:08:25.688Z,30.10
2022-08-05T07:10:53.602Z,30.86
2022-08-05T07:13:58.116Z,31.33
2022-08-05T07:18:00.690Z,32.05
2022-08-05T07:22:28.832Z,32.90
2022-08-05T07:24:59.896Z,33.13
2022-08-05T07:27:57.421Z,33.23
2022-08-05T07:30:38.303Z,33.39
2022-08-05T07:33:09.553Z,33.65
2022-08-05T07:36:02.656Z,33.74
2022-08-05T07:38:33.580Z,34.17
2022-08-05T07:42:07.407Z,34.12
2022-08-05T07:43:56.234Z,34.02
2022-08-05T07:46:27.074Z,34.28
2022-08-05T07:49:01.615Z,34.51
2022-08-05T07:51:36.798Z,34.49
2022-08-05T07:54:08.386Z,34.23
2022-08-05T07:57:01.506Z,34.35
2022-08-05T07:59:38.624Z,34.02
2022-08-05T08:02:15.820Z,33.74
2022-08-05T08:04:48.745Z,33.50
2022-08-05T08:07:17.823Z,33.47
2022-08-05T08:09:45.234Z,33.63
2022-08-05T08:12:35.397Z,34.01
2022-08-05T08:15:02.495Z,34.37
2022-08-05T08:17:30.420Z,34.67
2022-08-05T08:20:44.402Z,35.09
2022-08-05T08:22:59.494Z,35.37
2022-08-05T08:25:59.897Z,35.28
2022-08-05T08:28:18.664Z,34.97
2022-08-05T08:31:01.913Z,35.11
2022-08-05T08:33:30.890Z,35.07
2022-08-05T08:36:29.713Z,35.16
2022-08-05T08:38:53.456Z,35.36
2022-08-05T08:41:20.853Z,35.53
2022-08-05T08:45:19.091Z,35.66
2022-08-05T08:46:41.673Z,35.74
2022-08-05T08:50:23.139Z,35.84
2022-08-05T08:52:03.909Z,35.92
2022-08-05T08:54:42.282Z,35.88
2022-08-05T08:57:11.450Z,35.96
2022-08-05T08:59:42.046Z,35.74
2022-08-05T09:02:14.585Z,35.13
2022-08-05T09:04:58.235Z,34.63
2022-08-05T09:07:39.722Z,34.16
2022-08-05T09:10:19.128Z,33.79
2022-08-05T09:12:50.879Z,33.76
2022-08-05T09:15:20.254Z,33.50
2022-08-05T09:17:49.730Z,33.37
2022-08-05T09:20:36.501Z,33.62
2022-08-05T09:23:18.952Z,33.94
2022-08-05T09:26:02.077Z,34.41
2022-08-05T09:28:33.598Z,34.81
2022-08-05T09:32:08.513Z,35.08
2022-08-05T09:34:13.349Z,34.85
2022-08-05T09:36:55.923Z,34.80
2022-08-05T09:39:41.249Z,34.88
2022-08-05T09:42:17.387Z,34.83
2022-08-05T09:44:52.601Z,34.79
2022-08-05T09:47:25.650Z,34.65
2022-08-05T09:50:02.255Z,34.63
2022-08-05T09:52:32.007Z,34.61
2022-08-05T09:55:06.424Z,34.53
2022-08-05T09:57:54.534Z,34.64
2022-08-05T10:00:25.919Z,34.56
2022-08-05T10:02:54.703Z,34.56
2022-08-05T10:05:26.813Z,34.37
2022-08-05T10:08:35.913Z,34.36
2022-08-05T10:10:54.266Z,34.34
2022-08-05T10:13:45.677Z,34.33
2022-08-05T10:16:37.897Z,34.37
2022-08-05T10:19:19.070Z,34.41
2022-08-05T10:21:50.658Z,34.41
2022-08-05T10:24:21.363Z,34.51
2022-08-05T10:26:56.218Z,34.52
2022-08-05T10:30:07.002Z,34.65
2022-08-05T10:33:00.939Z,34.72
2022-08-05T10:35:03.057Z,34.78
2022-08-05T10:37:44.506Z,34.71
2022-08-05T10:40:45.074Z,34.72
2022-08-05T10:43:43.504Z,34.68
2022-08-05T10:46:13.421Z,34.73
2022-08-05T10:48:56.381Z,34.76
2022-08-05T10:51:29.365Z,34.81
2022-08-05T10:54:05.950Z,34.90
2022-08-05T10:56:57.711Z,34.85
2022-08-05T11:00:04.400Z,34.80
2022-08-05T11:02:37.832Z,34.79
2022-08-05T11:05:09.533Z,34.76
2022-08-05T11:08:02.439Z,34.79
2022-08-05T11:10:33.233Z,34.80
2022-08-05T11:13:01.310Z,34.77
2022-08-05T11:16:00.577Z,34.78
2022-08-05T11:18:34.777Z,34.66
2022-08-05T11:21:02.873Z,34.72
2022-08-05T11:23:49.834Z,34.85
2022-08-05T11:26:28.545Z,34.81
2022-08-05T11:29:11.979Z,34.88
2022-08-05T11:31:58.705Z,34.85
2022-08-05T11:34:47.564Z,34.83
2022-08-05T11:38:26.148Z,34.72
2022-08-05T11:41:56.087Z,34.67
2022-08-05T11:44:40.684Z,34.50
2022-08-05T11:47:14.068Z,34.45
2022-08-05T11:49:49.847Z,34.51
2022-08-05T11:52:29.379Z,34.25
2022-08-05T11:54:58.242Z,34.24
2022-08-05T11:57:39.398Z,34.45
2022-08-05T12:00:28.883Z,34.41
2022-08-05T12:02:56.619Z,34.49
2022-08-05T12:05:32.378Z,34.46
2022-08-05T12:08:10.724Z,34.58
2022-08-05T12:10:45.899Z,34.60
2022-08-05T12:13:28.203Z,34.47
2022-08-05T12:16:18.527Z,34.37
2022-08-05T12:18:48.710Z,34.40
2022-08-05T12:21:26.900Z,34.45
2022-08-05T12:24:00.182Z,34.57
2022-08-05T12:26:39.478Z,34.60
2022-08-05T12:29:15.970Z,34.62
2022-08-05T12:31:53.405Z,34.72
2022-08-05T12:34:29.951Z,34.66
2022-08-05T12:37:01.359Z,34.72
2022-08-05T12:39:37.181Z,34.74
2022-08-05T12:42:14.736Z,34.68
2022-08-05T12:44:43.158Z,34.47
2022-08-05T12:47:12.512Z,34.47
2022-08-05T12:50:04.622Z,34.39
2022-08-05T12:52:39.293Z,34.52
2022-08-05T12:55:23.589Z,34.57
2022-08-05T12:58:50.750Z,34.49
2022-08-05T13:02:03.683Z,34.59
2022-08-05T13:03:32.010Z,34.65
2022-08-05T13:05:59.865Z,34.61
2022-08-05T13:08:30.351Z,34.58
2022-08-05T13:11:01.344Z,34.59
2022-08-05T13:14:05.861Z,34.65
2022-08-05T13:16:17.001Z,34.72
2022-08-05T13:18:55.070Z,34.66
2022-08-05T13:21:27.962Z,34.64
2022-08-05T13:23:55.456Z,34.69
2022-08-05T13:26:27.213Z,34.84
2022-08-05T13:28:57.504Z,34.84
2022-08-05T13:32:02.814Z,34.77
2022-08-05T13:34:22.357Z,34.76
2022-08-05T13:36:52.034Z,34.67
2022-08-05T13:40:14.334Z,34.56
2022-08-05T13:42:04.955Z,34.55
2022-08-05T13:44:32.463Z,34.49
2022-08-05T13:47:04.986Z,34.48
2022-08-05T13:49:35.548Z,34.47
2022-08-05T13:52:16.033Z,34.31
2022-08-05T13:54:43.036Z,34.32
2022-08-05T13:57:20.494Z,34.38
2022-08-05T13:59:57.376Z,34.31
2022-08-05T14:02:26.568Z,34.29
2022-08-05T14:05:12.027Z,34.40
2022-08-05T14:07:59.920Z,34.44
2022-08-05T14:10:31.670Z,34.46
2022-08-05T14:12:59.444Z,34.48
2022-08-05T14:16:08.353Z,34.38
2022-08-05T14:18:17.242Z,34.32
2022-08-05T14:20:47.301Z,34.36
2022-08-05T14:23:14.746Z,34.38
2022-08-05T14:25:54.203Z,34.31
2022-08-05T14:28:26.381Z,34.09
2022-08-05T14:30:54.007Z,34.04
2022-08-05T14:33:23.202Z,34.04
2022-08-05T14:35:51.505Z,33.95
2022-08-05T14:38:32.788Z,33.90
2022-08-05T14:41:06.820Z,33.89
2022-08-05T14:44:02.551Z,33.89
2022-08-05T14:46:29.124Z,33.81
2022-08-05T14:48:59.528Z,33.81
2022-08-05T14:51:30.996Z,33.76
2022-08-05T14:54:26.685Z,33.65
2022-08-05T14:56:46.910Z,33.67
2022-08-05T14:59:13.862Z,33.61
2022-08-05T15:01:48.573Z,33.54
2022-08-05T15:04:16.004Z,33.49
2022-08-05T15:06:42.531Z,33.37
2022-08-05T15:09:16.012Z,33.29
2022-08-05T15:12:03.861Z,33.17
2022-08-05T15:14:35.617Z,33.09
2022-08-05T15:17:44.238Z,33.08
2022-08-05T15:19:55.659Z,33.04
2022-08-05T15:22:22.469Z,32.90
2022-08-05T15:24:54.198Z,32.75
2022-08-05T15:27:20.801Z,32.61
2022-08-05T15:29:47.266Z,32.46
2022-08-05T15:32:16.418Z,32.38
2022-08-05T15:34:43.224Z,32.28
2022-08-05T15:37:15.561Z,32.16
2022-08-05T15:40:59.774Z,31.99
2022-08-05T15:42:54.051Z,31.87
2022-08-05T15:45:17.281Z,31.79
2022-08-05T15:47:45.888Z,31.70
2022-08-05T15:50:15.861Z,31.57
2022-08-05T15:52:52.947Z,31.48
2022-08-05T15:55:24.988Z,31.36
2022-08-05T15:58:08.740Z,31.33
2022-08-05T16:01:04.279Z,31.25
2022-08-05T16:03:21.912Z,31.16
2022-08-05T16:05:52.420Z,31.09
2022-08-05T16:08:19.324Z,31.02
2022-08-05T16:10:45.820Z,30.98
2022-08-05T16:13:12.601Z,30.89
2022-08-05T16:15:51.801Z,30.76
2022-08-05T16:18:18.744Z,30.69
2022-08-05T16:20:46.363Z,30.62
2022-08-05T16:23:12.936Z,30.44
2022-08-05T16:25:40.028Z,30.34
2022-08-05T16:28:09.444Z,30.30
2022-08-05T16:30:36.935Z,30.17
2022-08-05T16:33:03.583Z,30.03
2022-08-05T16:35:32.321Z,29.92
2022-08-05T16:38:15.304Z,29.82
2022-08-05T16:40:47.674Z,29.78
2022-08-05T16:43:18.826Z,29.68
2022-08-05T16:46:08.137Z,29.61
2022-08-05T16:48:33.571Z,29.52
2022-08-05T16:51:01.664Z,29.47
2022-08-05T16:53:32.250Z,29.42
2022-08-05T16:56:14.693Z,29.32
2022-08-05T16:58:41.320Z,29.25
2022-08-05T17:01:10.414Z,29.19
2022-08-05T17:03:37.468Z,29.09
2022-08-05T17:06:05.671Z,29.00
2022-08-05T17:08:35.821Z,28.94
2022-08-05T17:11:18.650Z,28.83
2022-08-05T17:13:45.808Z,28.78
2022-08-05T17:16:33.456Z,28.73
2022-08-05T17:19:01.688Z,28.70
2022-08-05T17:21:36.165Z,28.64
2022-08-05T17:24:18.731Z,28.60
2022-08-05T17:26:56.062Z,28.61
2022-08-05T17:29:33.072Z,28.58
2022-08-05T17:32:08.341Z,28.56
2022-08-05T17:34:35.138Z,28.54
2022-08-05T17:37:01.829Z,28.60
2022-08-05T17:39:33.369Z,28.59
2022-08-05T17:42:17.603Z,28.61
2022-08-05T17:44:50.518Z,28.61
2022-08-05T17:47:21.900Z,28.57
2022-08-05T17:49:52.150Z,28.52
2022-08-05T17:52:32.173Z,28.44
2022-08-05T17:54:58.785Z,28.41
2022-08-05T17:57:25.304Z,28.37
2022-08-05T18:00:04.761Z,28.30
2022-08-05T18:02:33.344Z,28.25
2022-08-05T18:05:03.690Z,28.13
2022-08-05T18:07:41.421Z,28.03
2022-08-05T18:10:11.130Z,28.00
2022-08-05T18:12:38.726Z,27.90
2022-08-05T18:15:05.812Z,27.80
2022-08-05T18:18:00.393Z,27.73
2022-08-05T18:20:19.558Z,27.63
2022-08-05T18:22:57.550Z,27.61
2022-08-05T18:25:25.171Z,27.44
2022-08-05T18:27:59.134Z,27.32
2022-08-05T18:30:29.218Z,27.26
2022-08-05T18:33:00.517Z,27.23
2022-08-05T18:36:01.422Z,27.20
2022-08-05T18:38:16.492Z,27.18
2022-08-05T18:41:56.735Z,27.10
2022-08-05T18:43:38.300Z,27.06
2022-08-05T18:46:09.977Z,27.02
2022-08-05T18:48:41.594Z,26.95
2022-08-05T18:52:06.302Z,26.90
2022-08-05T18:54:13.685Z,26.82
2022-08-05T18:56:40.486Z,26.80
2022-08-05T18:59:44.409Z,26.77
2022-08-05T19:01:57.118Z,26.76
2022-08-05T19:04:25.661Z,26.71
2022-08-05T19:06:53.751Z,26.66
2022-08-05T19:09:20.623Z,26.59
2022-08-05T19:11:59.471Z,26.52
2022-08-05T19:14:52.098Z,26.42
2022-08-05T19:17:14.621Z,26.30
2022-08-05T19:19:46.750Z,26.19
2022-08-05T19:22:17.414Z,26.07
2022-08-05T19:24:56.118Z,25.90
2022-08-05T19:27:24.058Z,25.73
2022-08-05T19:29:56.436Z,25.63
2022-08-05T19:32:23.818Z,25.53
2022-08-05T19:34:55.175Z,25.34
2022-08-05T19:37:29.761Z,25.14
2022-08-05T19:40:01.977Z,25.04
2022-08-05T19:42:35.417Z,24.87
2022-08-05T19:45:05.606Z,24.68
2022-08-05T19:47:33.910Z,24.57
2022-08-05T19:50:01.074Z,24.38
2022-08-05T19:52:31.458Z,24.23
2022-08-05T19:56:14.994Z,24.09
2022-08-05T19:58:14.671Z,23.90
2022-08-05T20:00:41.680Z,23.83
2022-08-05T20:03:08.544Z,23.78
2022-08-05T20:05:49.955Z,23.68
2022-08-05T20:08:16.948Z,23.54
2022-08-05T20:10:43.439Z,23.51
2022-08-05T20:13:10.930Z,23.44
2022-08-05T20:15:52.440Z,23.35
2022-08-05T20:18:35.756Z,23.31
2022-08-05T20:21:05.188Z,23.21
2022-08-05T20:23:40.480Z,23.09
2022-08-05T20:26:24.686Z,23.00
2022-08-05T20:28:55.555Z,22.93
2022-08-05T20:31:28.786Z,22.82
2022-08-05T20:34:04.320Z,22.72
2022-08-05T20:36:30.819Z,22.67
2022-08-05T20:38:59.317Z,22.54
2022-08-05T20:41:43.328Z,22.43
2022-08-05T20:44:17.888Z,22.37
2022-08-05T20:46:46.678Z,22.27
2022-08-05T20:49:13.845Z,22.23
2022-08-05T20:51:40.361Z,22.15
2022-08-05T20:54:07.016Z,22.08
2022-08-05T20:56:42.413Z,22.03
2022-08-05T20:59:18.925Z,21.94
2022-08-05T21:01:46.255Z,21.84
2022-08-05T21:04:13.776Z,21.79
2022-08-05T21:06:45.351Z,21.74
2022-08-05T21:09:14.438Z,21.70
2022-08-05T21:12:09.147Z,21.65
2022-08-05T21:14:29.282Z,21.64
2022-08-05T21:17:01.649Z,21.60
2022-08-05T21:19:29.759Z,21.60
2022-08-05T21:22:14.431Z,21.64
2022-08-05T21:24:40.996Z,21.70
2022-08-05T21:27:09.147Z,21.57
2022-08-05T21:29:40.764Z,21.37
2022-08-05T21:32:07.738Z,21.33
2022-08-05T21:34:35.589Z,21.31
2022-08-05T21:37:02.333Z,21.22
2022-08-05T21:39:29.390Z,21.07
2022-08-05T21:42:01.028Z,20.86
2022-08-05T21:44:28.498Z,20.66
2022-08-05T21:46:57.940Z,20.56
2022-08-05T21:49:48.435Z,20.61
2022-08-05T21:52:16.015Z,20.56
2022-08-05T21:54:51.287Z,20.50
2022-08-05T21:57:31.483Z,20.48
2022-08-05T22:00:06.180Z,20.38
2022-08-05T22:02:34.454Z,20.32
2022-08-05T22:05:00.946Z,20.27
2022-08-05T22:07:40.262Z,20.21
2022-08-05T22:10:16.186Z,20.03
2022-08-05T22:12:44.950Z,20.01
2022-08-05T22:16:01.813Z,20.02
2022-08-05T22:18:04.563Z,20.00
2022-08-05T22:20:31.341Z,19.98
2022-08-05T22:23:21.395Z,20.00
2022-08-05T22:26:09.996Z,19.93
2022-08-05T22:28:38.586Z,19.82
2022-08-05T22:31:05.951Z,19.80
2022-08-05T22:33:58.571Z,19.82
2022-08-05T22:36:19.504Z,19.77
2022-08-05T22:38:51.826Z,19.77
2022-08-05T22:42:04.794Z,19.74
2022-08-05T22:44:08.378Z,19.68
2022-08-05T22:46:39.883Z,19.64
2022-08-05T22:49:23.225Z,19.74
2022-08-05T22:52:07.278Z,19.76
2022-08-05T22:54:39.655Z,19.67
2022-08-05T22:57:15.282Z,19.49
2022-08-05T22:59:46.227Z,19.45
2022-08-05T23:02:18.872Z,19.41
2022-08-05T23:04:56.800Z,19.37
2022-08-05T23:07:23.339Z,19.34
2022-08-05T23:09:57.333Z,19.35
2022-08-05T23:12:28.626Z,19.38
2022-08-05T23:14:55.471Z,19.38
2022-08-05T23:17:34.450Z,19.39
2022-08-05T23:20:16.423Z,19.39
2022-08-05T23:22:47.820Z,19.30
2022-08-05T23:25:17.650Z,19.29
2022-08-05T23:28:03.384Z,19.16
2022-08-05T23:30:40.540Z,18.96
2022-08-05T23:33:16.317Z,18.92
2022-08-05T23:35:52.625Z,18.96
2022-08-05T23:38:22.826Z,18.97
2022-08-05T23:40:50.679Z,18.88
2022-08-05T23:43:25.648Z,18.81
2022-08-05T23:46:21.118Z,18.71
2022-08-05T23:48:59.731Z,18.67
2022-08-05T23:51:53.474Z,18.63
2022-08-05T23:54:30.489Z,18.59
2022-08-05T23:57:03.274Z,18.54
